createdAt,value
2022-08-26T00:00:27.169Z,46.03
2022-08-26T00:02:53.740Z,45.56
2022-08-26T00:05:20.437Z,46.12
2022-08-26T00:07:47.792Z,46.18
2022-08-26T00:10:15.311Z,46.30
2022-08-26T00:12:41.886Z,46.12
2022-08-26T00:15:08.404Z,46.24
2022-08-26T00:17:35.209Z,45.93
2022-08-26T00:20:01.646Z,45.92
2022-08-26T00:22:28.058Z,45.73
2022-08-26T00:24:55.060Z,45.61
2022-08-26T00:27:21.547Z,46.14
2022-08-26T00:29:48.610Z,46.11
2022-08-26T00:32:15.462Z,46.31
2022-08-26T00:34:42.418Z,46.34
2022-08-26T00:37:11.638Z,46.15
2022-08-26T00:39:41.272Z,45.98
2022-08-26T00:42:07.736Z,46.01
2022-08-26T00:44:34.196Z,46.13
2022-08-26T00:47:00.975Z,46.80
2022-08-26T00:49:27.503Z,46.68
2022-08-26T00:51:56.102Z,46.72
2022-08-26T00:54:22.894Z,46.68
2022-08-26T00:56:49.412Z,47.02
2022-08-26T00:59:17.685Z,46.82
2022-08-26T01:01:46.030Z,48.02
2022-08-26T01:04:12.864Z,47.07
2022-08-26T01:06:39.582Z,46.63
2022-08-26T01:09:06.434Z,46.28
2022-08-26T01:11:33.280Z,46.34
2022-08-26T01:13:59.716Z,46.33
2022-08-26T01:16:26.423Z,46.30
2022-08-26T01:18:53.550Z,46.29
2022-08-26T01:21:21.373Z,46.53
2022-08-26T01:23:49.690Z,46.70
2022-08-26T01:26:19.791Z,46.41
2022-08-26T01:28:46.500Z,46.64
2022-08-26T01:31:17.423Z,46.09
2022-08-26T01:33:44.447Z,46.90
2022-08-26T01:36:11.446Z,46.78
2022-08-26T01:38:38.179Z,46.83
2022-08-26T01:41:04.901Z,46.94
2022-08-26T01:43:46.364Z,47.03
2022-08-26T01:46:14.914Z,46.83
2022-08-26T01:48:41.778Z,46.90
2022-08-26T01:51:08.448Z,47.27
2022-08-26T01:53:34.846Z,47.11
2022-08-26T01:56:01.281Z,47.04
2022-08-26T01:58:30.724Z,46.89
2022-08-26T02:00:57.430Z,46.78
2022-08-26T02:03:26.716Z,46.32
2022-08-26T02:05:53.259Z,46.73
2022-08-26T02:08:24.543Z,46.83
2022-08-26T02:10:54.608Z,46.58
2022-08-26T02:13:21.785Z,46.82
2022-08-26T02:15:48.979Z,46.77
2022-08-26T02:18:16.350Z,47.10
2022-08-26T02:20:43.165Z,46.93
2022-08-26T02:23:09.918Z,46.88
2022-08-26T02:25:36.609Z,46.65
2022-08-26T02:28:04.035Z,47.13
2022-08-26T02:30:30.982Z,46.86
2022-08-26T02:32:57.544Z,47.03
2022-08-26T02:35:24.202Z,46.72
2022-08-26T02:37:50.843Z,46.70
2022-08-26T02:40:17.319Z,46.87
2022-08-26T02:42:43.800Z,46.96
2022-08-26T02:45:10.415Z,46.73
2022-08-26T02:47:36.847Z,47.09
2022-08-26T02:50:03.901Z,47.22
2022-08-26T02:52:30.374Z,47.32
2022-08-26T02:54:58.781Z,47.42
2022-08-26T02:57:26.506Z,47.39
2022-08-26T02:59:52.950Z,47.32
2022-08-26T03:02:19.429Z,47.22
2022-08-26T03:04:57.928Z,47.06
2022-08-26T03:07:28.554Z,47.22
2022-08-26T03:09:55.318Z,47.42
2022-08-26T03:12:22.245Z,47.37
2022-08-26T03:14:48.697Z,47.30
2022-08-26T03:17:15.240Z,47.44
2022-08-26T03:19:41.694Z,47.18
2022-08-26T03:22:08.126Z,47.15
2022-08-26T03:24:34.812Z,47.20
2022-08-26T03:27:01.304Z,47.44
2022-08-26T03:29:32.932Z,47.30
2022-08-26T03:32:00.194Z,47.58
2022-08-26T03:34:26.613Z,47.19
2022-08-26T03:36:54.446Z,47.19
2022-08-26T03:39:21.946Z,47.64
2022-08-26T03:41:48.364Z,47.24
2022-08-26T03:44:14.987Z,47.52
2022-08-26T03:46:41.470Z,48.18
2022-08-26T03:49:10.527Z,48.41
2022-08-26T03:51:38.842Z,48.15
2022-08-26T03:54:05.956Z,48.10
2022-08-26T03:56:35.830Z,47.36
2022-08-26T03:59:02.273Z,47.90
2022-08-26T04:01:29.484Z,48.14
2022-08-26T04:03:57.397Z,48.13
2022-08-26T04:06:26.724Z,47.96
2022-08-26T04:08:53.279Z,47.92
2022-08-26T04:11:19.956Z,47.95
2022-08-26T04:13:46.848Z,47.98
2022-08-26T04:16:14.295Z,48.35
2022-08-26T04:18:46.453Z,48.43
2022-08-26T04:21:13.670Z,47.76
2022-08-26T04:23:46.875Z,47.93
2022-08-26T04:26:14.397Z,47.93
2022-08-26T04:28:40.989Z,48.00
2022-08-26T04:31:07.717Z,47.67
2022-08-26T04:33:34.152Z,47.62
2022-08-26T04:36:08.417Z,47.47
2022-08-26T04:38:35.108Z,47.49
2022-08-26T04:41:01.805Z,47.25
2022-08-26T04:43:32.563Z,47.73
2022-08-26T04:45:59.382Z,47.49
2022-08-26T04:48:26.110Z,47.90
2022-08-26T04:50:53.103Z,47.28
2022-08-26T04:53:22.501Z,47.47
2022-08-26T04:55:51.570Z,47.57
2022-08-26T04:58:21.986Z,47.33
2022-08-26T05:00:48.376Z,47.06
2022-08-26T05:03:15.809Z,47.35
2022-08-26T05:05:43.273Z,47.51
2022-08-26T05:08:09.931Z,47.38
2022-08-26T05:10:38.008Z,47.26
2022-08-26T05:13:05.098Z,47.31
2022-08-26T05:15:37.955Z,46.92
2022-08-26T05:18:04.558Z,47.03
2022-08-26T05:20:31.086Z,47.22
2022-08-26T05:22:57.487Z,46.89
2022-08-26T05:25:23.900Z,46.85
2022-08-26T05:27:53.991Z,47.25
2022-08-26T05:30:21.053Z,47.06
2022-08-26T05:32:47.461Z,46.88
2022-08-26T05:35:15.102Z,46.81
2022-08-26T05:37:42.427Z,46.84
2022-08-26T05:40:08.932Z,47.01
2022-08-26T05:42:37.547Z,47.10
2022-08-26T05:45:03.996Z,46.52
2022-08-26T05:47:30.579Z,46.58
2022-08-26T05:49:57.120Z,46.86
2022-08-26T05:52:25.880Z,46.44
2022-08-26T05:54:52.559Z,46.83
2022-08-26T05:57:19.056Z,46.45
2022-08-26T05:59:49.629Z,46.44
2022-08-26T06:02:16.228Z,46.65
2022-08-26T06:04:43.705Z,46.21
2022-08-26T06:07:13.548Z,46.26
2022-08-26T06:09:40.259Z,46.20
2022-08-26T06:12:09.302Z,46.19
2022-08-26T06:14:36.013Z,46.11
2022-08-26T06:17:02.532Z,46.01
2022-08-26T06:19:32.701Z,45.88
2022-08-26T06:22:00.925Z,45.99
2022-08-26T06:24:27.583Z,46.37
2022-08-26T06:26:54.173Z,46.26
2022-08-26T06:29:24.726Z,47.23
2022-08-26T06:31:51.233Z,47.04
2022-08-26T06:34:18.259Z,47.11
2022-08-26T06:36:44.693Z,46.92
2022-08-26T06:39:11.088Z,46.55
2022-08-26T06:41:41.441Z,46.42
2022-08-26T06:44:09.824Z,46.88
2022-08-26T06:46:36.361Z,47.26
2022-08-26T06:49:02.849Z,46.63
2022-08-26T06:51:29.254Z,46.22
2022-08-26T06:53:55.697Z,46.48
2022-08-26T06:56:22.112Z,46.50
2022-08-26T06:58:48.560Z,46.81
2022-08-26T07:01:15.077Z,46.99
2022-08-26T07:03:41.685Z,47.09
2022-08-26T07:06:08.196Z,47.45
2022-08-26T07:08:34.613Z,47.93
2022-08-26T07:11:01.167Z,46.79
2022-08-26T07:13:30.498Z,46.80
2022-08-26T07:15:57.539Z,46.81
2022-08-26T07:18:29.475Z,46.99
2022-08-26T07:20:55.850Z,46.98
2022-08-26T07:23:22.604Z,46.73
2022-08-26T07:25:49.188Z,47.20
2022-08-26T07:28:15.661Z,47.22
2022-08-26T07:30:42.152Z,46.86
2022-08-26T07:33:08.993Z,46.88
2022-08-26T07:35:37.349Z,47.02
2022-08-26T07:38:03.794Z,46.50
2022-08-26T07:40:30.450Z,46.82
2022-08-26T07:42:56.923Z,47.48
2022-08-26T07:45:23.568Z,47.18
2022-08-26T07:47:49.972Z,47.42
2022-08-26T07:50:16.306Z,47.33
2022-08-26T07:52:42.688Z,47.39
2022-08-26T07:55:09.103Z,46.55
2022-08-26T07:57:35.522Z,46.51
2022-08-26T08:00:06.418Z,46.40
2022-08-26T08:02:32.900Z,46.41
2022-08-26T08:05:01.043Z,46.40
2022-08-26T08:07:44.286Z,46.84
2022-08-26T08:10:11.871Z,45.92
2022-08-26T08:12:40.162Z,46.40
2022-08-26T08:15:07.526Z,44.40
2022-08-26T08:17:34.456Z,45.90
2022-08-26T08:20:02.246Z,45.28
2022-08-26T08:22:30.872Z,45.25
2022-08-26T08:24:57.609Z,44.75
2022-08-26T08:27:24.443Z,43.95
2022-08-26T08:29:50.879Z,44.23
2022-08-26T08:32:18.994Z,44.68
2022-08-26T08:34:45.493Z,43.31
2022-08-26T08:37:11.995Z,43.69
2022-08-26T08:39:38.894Z,44.49
2022-08-26T08:42:06.594Z,42.99
2022-08-26T08:44:33.248Z,43.39
2022-08-26T08:46:59.706Z,43.41
2022-08-26T08:49:26.134Z,42.58
2022-08-26T08:51:53.114Z,42.17
2022-08-26T08:54:22.031Z,42.52
2022-08-26T08:56:49.016Z,43.27
2022-08-26T08:59:16.302Z,43.46
2022-08-26T09:01:43.095Z,42.96
2022-08-26T09:04:09.664Z,43.74
2022-08-26T09:06:37.422Z,43.33
2022-08-26T09:09:07.729Z,42.61
2022-08-26T09:11:34.806Z,43.45
2022-08-26T09:14:01.527Z,43.30
2022-08-26T09:16:28.411Z,43.00
2022-08-26T09:18:57.254Z,43.35
2022-08-26T09:21:25.290Z,43.31
2022-08-26T09:23:52.034Z,43.55
2022-08-26T09:26:19.507Z,43.77
2022-08-26T09:28:46.096Z,43.90
2022-08-26T09:31:13.666Z,43.32
2022-08-26T09:33:40.334Z,42.72
2022-08-26T09:36:07.822Z,43.46
2022-08-26T09:38:36.852Z,43.27
2022-08-26T09:41:05.146Z,44.09
2022-08-26T09:43:31.750Z,43.32
2022-08-26T09:45:59.812Z,43.41
2022-08-26T09:48:26.348Z,45.73
2022-08-26T09:50:53.564Z,43.84
2022-08-26T09:53:21.127Z,44.59
2022-08-26T09:55:55.136Z,43.27
2022-08-26T09:58:21.706Z,43.79
2022-08-26T10:00:48.267Z,43.87
2022-08-26T10:03:17.336Z,43.13
2022-08-26T10:05:44.320Z,42.27
2022-08-26T10:08:10.858Z,41.45
2022-08-26T10:10:38.635Z,40.59
2022-08-26T10:13:06.588Z,40.50
2022-08-26T10:15:33.057Z,40.13
2022-08-26T10:17:59.596Z,39.77
2022-08-26T10:20:26.341Z,38.60
2022-08-26T10:22:53.073Z,39.02
2022-08-26T10:25:20.060Z,38.99
2022-08-26T10:27:51.075Z,39.20
2022-08-26T10:30:19.765Z,39.08
2022-08-26T10:32:46.401Z,38.31
2022-08-26T10:35:12.867Z,37.61
2022-08-26T10:37:39.339Z,37.64
2022-08-26T10:40:05.734Z,38.31
2022-08-26T10:42:32.216Z,39.34
2022-08-26T10:44:58.861Z,39.10
2022-08-26T10:47:25.310Z,36.72
2022-08-26T10:49:51.727Z,38.32
2022-08-26T10:52:18.158Z,37.23
2022-08-26T10:54:44.677Z,36.61
2022-08-26T10:57:11.126Z,36.78
2022-08-26T10:59:37.481Z,37.13
2022-08-26T11:02:04.087Z,35.18
2022-08-26T11:04:31.277Z,35.71
2022-08-26T11:07:01.432Z,36.35
2022-08-26T11:09:28.797Z,36.65
2022-08-26T11:11:55.406Z,36.06
2022-08-26T11:14:29.041Z,37.05
2022-08-26T11:16:56.822Z,36.86
2022-08-26T11:19:24.581Z,37.13
2022-08-26T11:21:51.041Z,36.72
2022-08-26T11:24:17.524Z,35.96
2022-08-26T11:26:55.314Z,37.39
2022-08-26T11:29:22.263Z,36.06
2022-08-26T11:31:48.683Z,35.15
2022-08-26T11:34:15.330Z,34.87
2022-08-26T11:36:42.184Z,35.30
2022-08-26T11:39:08.576Z,36.01
2022-08-26T11:41:36.322Z,35.84
2022-08-26T11:44:04.009Z,36.80
2022-08-26T11:46:31.285Z,36.46
2022-08-26T11:48:58.580Z,35.23
2022-08-26T11:51:25.144Z,35.65
2022-08-26T11:53:51.565Z,36.40
2022-08-26T11:56:17.993Z,36.86
2022-08-26T11:58:48.020Z,34.09
2022-08-26T12:01:14.433Z,35.15
2022-08-26T12:03:43.817Z,34.06
2022-08-26T12:06:10.884Z,34.93
2022-08-26T12:08:40.724Z,35.17
2022-08-26T12:11:07.405Z,34.99
2022-08-26T12:13:34.563Z,35.85
2022-08-26T12:16:01.176Z,35.04
2022-08-26T12:18:28.751Z,35.20
2022-08-26T12:20:56.616Z,35.55
2022-08-26T12:23:23.072Z,35.69
2022-08-26T12:25:50.373Z,34.37
2022-08-26T12:28:17.592Z,34.99
2022-08-26T12:30:46.086Z,34.48
2022-08-26T12:33:22.694Z,34.75
2022-08-26T12:35:54.202Z,34.67
2022-08-26T12:38:22.736Z,34.27
2022-08-26T12:40:49.208Z,34.97
2022-08-26T12:43:16.318Z,34.92
2022-08-26T12:45:42.779Z,35.34
2022-08-26T12:48:09.385Z,35.25
2022-08-26T12:50:35.985Z,34.57
2022-08-26T12:53:02.440Z,33.83
2022-08-26T12:55:28.849Z,34.03
2022-08-26T12:57:55.608Z,34.70
2022-08-26T13:00:22.026Z,35.81
2022-08-26T13:02:54.959Z,35.03
2022-08-26T13:05:21.454Z,34.65
2022-08-26T13:07:48.428Z,33.86
2022-08-26T13:10:14.885Z,34.13
2022-08-26T13:12:41.488Z,33.53
2022-08-26T13:15:07.919Z,32.32
2022-08-26T13:17:34.390Z,33.91
2022-08-26T13:20:03.785Z,32.90
2022-08-26T13:22:31.037Z,33.70
2022-08-26T13:24:57.502Z,32.66
2022-08-26T13:27:24.004Z,33.23
2022-08-26T13:29:50.428Z,31.68
2022-08-26T13:32:17.373Z,32.66
2022-08-26T13:34:47.127Z,32.74
2022-08-26T13:37:17.091Z,32.90
2022-08-26T13:39:43.524Z,33.00
2022-08-26T13:42:10.166Z,32.52
2022-08-26T13:44:36.779Z,31.41
2022-08-26T13:47:03.532Z,31.00
2022-08-26T13:49:29.990Z,31.15
2022-08-26T13:51:56.463Z,31.24
2022-08-26T13:54:23.161Z,30.28
2022-08-26T13:56:49.568Z,30.75
2022-08-26T13:59:16.107Z,31.22
2022-08-26T14:01:42.620Z,30.35
2022-08-26T14:04:09.089Z,31.04
2022-08-26T14:06:35.560Z,30.79
2022-08-26T14:09:02.349Z,30.45
2022-08-26T14:11:28.929Z,30.69
2022-08-26T14:14:01.240Z,30.68
2022-08-26T14:16:27.990Z,29.30
2022-08-26T14:18:54.533Z,30.20
2022-08-26T14:21:20.983Z,29.08
2022-08-26T14:23:47.630Z,30.57
2022-08-26T14:26:28.242Z,30.53
2022-08-26T14:28:56.025Z,30.11
2022-08-26T14:31:22.544Z,29.44
2022-08-26T14:33:49.059Z,30.21
2022-08-26T14:36:15.760Z,28.40
2022-08-26T14:38:42.264Z,29.81
2022-08-26T14:41:08.713Z,28.76
2022-08-26T14:43:35.459Z,29.35
2022-08-26T14:46:01.952Z,28.38
2022-08-26T14:48:28.488Z,29.15
2022-08-26T14:50:54.925Z,29.51
2022-08-26T14:53:21.455Z,28.64
2022-08-26T14:55:47.891Z,28.61
2022-08-26T14:58:14.556Z,28.00
2022-08-26T15:00:41.244Z,28.20
2022-08-26T15:03:07.785Z,29.41
2022-08-26T15:05:34.498Z,29.20
2022-08-26T15:08:01.032Z,29.31
2022-08-26T15:10:27.490Z,29.10
2022-08-26T15:12:54.095Z,29.83
2022-08-26T15:15:20.541Z,28.77
2022-08-26T15:17:47.088Z,28.94
2022-08-26T15:20:16.213Z,28.24
2022-08-26T15:22:42.685Z,28.57
2022-08-26T15:25:09.803Z,29.08
2022-08-26T15:27:36.415Z,29.06
2022-08-26T15:30:02.871Z,29.35
2022-08-26T15:32:29.347Z,28.75
2022-08-26T15:34:55.972Z,29.66
2022-08-26T15:37:22.444Z,29.28
2022-08-26T15:39:48.950Z,29.17
2022-08-26T15:42:15.496Z,29.11
2022-08-26T15:44:41.936Z,29.49
2022-08-26T15:47:08.387Z,28.82
2022-08-26T15:49:35.314Z,28.84
2022-08-26T15:52:03.458Z,28.07
2022-08-26T15:54:31.755Z,28.60
2022-08-26T15:56:58.304Z,28.78
2022-08-26T15:59:24.801Z,28.29
2022-08-26T16:01:51.351Z,27.71
2022-08-26T16:04:18.118Z,27.83
2022-08-26T16:06:44.545Z,27.28
2022-08-26T16:09:11.033Z,27.98
2022-08-26T16:11:37.478Z,27.36
2022-08-26T16:14:03.955Z,27.77
2022-08-26T16:16:30.453Z,27.88
2022-08-26T16:18:57.136Z,28.16
2022-08-26T16:21:23.571Z,28.10
2022-08-26T16:23:50.013Z,27.61
2022-08-26T16:26:16.658Z,27.80
2022-08-26T16:28:43.652Z,28.04
2022-08-26T16:31:10.342Z,28.34
2022-08-26T16:33:37.102Z,28.03
2022-08-26T16:36:03.597Z,27.97
2022-08-26T16:38:30.541Z,28.50
2022-08-26T16:40:57.224Z,28.33
2022-08-26T16:43:23.657Z,28.63
2022-08-26T16:45:50.078Z,28.87
2022-08-26T16:48:16.813Z,28.93
2022-08-26T16:50:43.284Z,28.94
2022-08-26T16:55:41.714Z,29.33
2022-08-26T16:58:08.250Z,28.86
2022-08-26T17:00:34.813Z,29.33
2022-08-26T17:03:01.348Z,29.55
2022-08-26T17:05:27.850Z,29.09
2022-08-26T17:07:54.341Z,29.53
2022-08-26T17:10:20.965Z,29.90
2022-08-26T17:12:47.413Z,29.15
2022-08-26T17:15:13.867Z,29.74
2022-08-26T17:17:40.343Z,29.67
2022-08-26T17:20:06.762Z,29.92
2022-08-26T17:22:34.759Z,29.91
2022-08-26T17:25:01.521Z,30.41
2022-08-26T17:27:27.943Z,30.71
2022-08-26T17:29:54.402Z,30.79
2022-08-26T17:32:20.874Z,31.51
2022-08-26T17:34:47.311Z,30.50
2022-08-26T17:37:13.759Z,31.20
2022-08-26T17:39:40.421Z,31.32
2022-08-26T17:42:06.878Z,32.96
2022-08-26T17:44:33.317Z,35.22
2022-08-26T17:47:00.060Z,35.57
2022-08-26T17:49:26.593Z,36.41
2022-08-26T17:51:53.009Z,37.08
2022-08-26T17:54:19.436Z,36.73
2022-08-26T17:56:45.892Z,36.61
2022-08-26T17:59:12.559Z,36.03
2022-08-26T18:01:39.560Z,36.27
2022-08-26T18:04:06.027Z,36.18
2022-08-26T18:06:32.651Z,36.42
2022-08-26T18:08:59.339Z,36.58
2022-08-26T18:11:25.759Z,36.13
2022-08-26T18:13:52.160Z,36.94
2022-08-26T18:16:18.793Z,36.79
2022-08-26T18:18:45.290Z,36.56
2022-08-26T18:21:11.708Z,36.78
2022-08-26T18:23:38.177Z,37.37
2022-08-26T18:26:04.585Z,38.54
2022-08-26T18:28:31.164Z,39.35
2022-08-26T18:30:58.928Z,37.91
2022-08-26T18:33:25.445Z,37.25
2022-08-26T18:35:51.966Z,36.22
2022-08-26T18:38:18.854Z,36.07
2022-08-26T18:40:45.880Z,36.50
2022-08-26T18:43:12.267Z,36.41
2022-08-26T18:45:38.904Z,36.85
2022-08-26T18:48:05.331Z,36.46
2022-08-26T18:50:32.104Z,36.80
2022-08-26T18:52:58.929Z,37.56
2022-08-26T18:55:25.408Z,37.76
2022-08-26T18:57:51.903Z,37.41
2022-08-26T19:00:18.412Z,37.43
2022-08-26T19:02:50.509Z,37.00
2022-08-26T19:05:19.016Z,37.52
2022-08-26T19:07:48.001Z,37.34
2022-08-26T19:10:14.847Z,37.37
2022-08-26T19:12:41.416Z,37.02
2022-08-26T19:15:08.166Z,37.51
2022-08-26T19:17:34.597Z,37.47
2022-08-26T19:20:01.418Z,37.38
2022-08-26T19:22:29.243Z,37.11
2022-08-26T19:24:56.272Z,37.35
2022-08-26T19:27:23.947Z,37.50
2022-08-26T19:29:50.813Z,37.20
2022-08-26T19:32:17.705Z,37.16
2022-08-26T19:34:44.640Z,36.63
2022-08-26T19:37:11.489Z,37.33
2022-08-26T19:39:39.332Z,37.44
2022-08-26T19:42:06.341Z,37.76
2022-08-26T19:44:33.148Z,37.43
2022-08-26T19:47:00.079Z,37.41
2022-08-26T19:49:27.093Z,38.08
2022-08-26T19:51:53.883Z,37.32
2022-08-26T19:54:21.687Z,37.30
2022-08-26T19:56:49.827Z,38.18
2022-08-26T19:59:16.900Z,37.72
2022-08-26T20:01:43.684Z,37.68
2022-08-26T20:04:13.085Z,37.57
2022-08-26T20:06:39.930Z,37.82
2022-08-26T20:09:09.090Z,37.75
2022-08-26T20:11:36.812Z,37.87
2022-08-26T20:14:03.739Z,37.85
2022-08-26T20:16:30.558Z,38.01
2022-08-26T20:18:57.685Z,38.20
2022-08-26T20:21:24.455Z,38.29
2022-08-26T20:23:52.370Z,38.09
2022-08-26T20:26:19.379Z,38.25
2022-08-26T20:28:46.702Z,38.71
2022-08-26T20:31:18.265Z,38.15
2022-08-26T20:33:46.541Z,38.46
2022-08-26T20:36:13.537Z,38.14
2022-08-26T20:38:40.143Z,38.52
2022-08-26T20:41:06.937Z,38.44
2022-08-26T20:43:33.903Z,38.04
2022-08-26T20:46:02.561Z,38.93
2022-08-26T20:48:34.935Z,38.59
2022-08-26T20:51:01.434Z,38.68
2022-08-26T20:53:28.505Z,38.20
2022-08-26T20:55:58.005Z,38.44
2022-08-26T20:58:24.734Z,38.81
2022-08-26T21:00:51.549Z,38.29
2022-08-26T21:03:19.054Z,38.28
2022-08-26T21:05:46.705Z,37.88
2022-08-26T21:08:13.303Z,38.52
2022-08-26T21:10:39.992Z,38.19
2022-08-26T21:13:06.570Z,38.07
2022-08-26T21:15:33.192Z,38.31
2022-08-26T21:17:59.928Z,38.33
2022-08-26T21:20:27.650Z,38.09
2022-08-26T21:22:54.141Z,37.92
2022-08-26T21:25:20.886Z,38.86
2022-08-26T21:27:47.443Z,38.93
2022-08-26T21:30:14.027Z,39.22
2022-08-26T21:32:40.982Z,39.10
2022-08-26T21:35:07.683Z,38.98
2022-08-26T21:37:34.492Z,38.02
2022-08-26T21:40:01.187Z,38.99
2022-08-26T21:42:27.735Z,40.32
2022-08-26T21:44:54.264Z,40.82
2022-08-26T21:47:21.183Z,40.01
2022-08-26T21:49:47.806Z,41.15
2022-08-26T21:52:14.398Z,42.49
2022-08-26T21:54:49.448Z,42.07
2022-08-26T21:57:16.885Z,42.37
2022-08-26T21:59:43.568Z,42.27
2022-08-26T22:02:10.947Z,40.61
2022-08-26T22:04:37.604Z,41.60
2022-08-26T22:07:04.423Z,41.65
2022-08-26T22:09:31.890Z,42.05
2022-08-26T22:12:05.868Z,41.93
2022-08-26T22:14:32.708Z,42.99
2022-08-26T22:16:59.317Z,42.36
2022-08-26T22:19:26.883Z,41.85
2022-08-26T22:21:53.453Z,41.49
2022-08-26T22:24:20.002Z,42.16
2022-08-26T22:26:46.499Z,41.34
2022-08-26T22:29:13.037Z,41.12
2022-08-26T22:31:39.508Z,40.26
2022-08-26T22:34:06.083Z,40.13
2022-08-26T22:36:33.073Z,39.77
2022-08-26T22:38:59.544Z,39.38
2022-08-26T22:41:26.097Z,39.46
2022-08-26T22:43:52.637Z,40.31
2022-08-26T22:46:19.171Z,40.50
2022-08-26T22:48:45.729Z,39.98
2022-08-26T22:51:16.782Z,41.22
2022-08-26T22:53:43.380Z,40.56
2022-08-26T22:56:09.843Z,41.43
2022-08-26T22:58:36.870Z,41.52
2022-08-26T23:01:03.440Z,41.94
2022-08-26T23:03:30.568Z,41.46
2022-08-26T23:05:57.106Z,41.00
2022-08-26T23:08:23.625Z,41.82
2022-08-26T23:10:53.441Z,41.44
2022-08-26T23:13:20.120Z,41.63
2022-08-26T23:15:46.585Z,41.62
2022-08-26T23:18:13.636Z,41.56
2022-08-26T23:20:40.608Z,41.54
2022-08-26T23:23:08.238Z,42.04
2022-08-26T23:25:34.736Z,42.80
2022-08-26T23:28:01.984Z,42.23
2022-08-26T23:30:28.466Z,41.66
2022-08-26T23:32:55.038Z,40.98
2022-08-26T23:35:21.616Z,41.34
2022-08-26T23:37:50.080Z,41.58
2022-08-26T23:40:17.144Z,41.12
2022-08-26T23:42:43.967Z,40.69
2022-08-26T23:45:10.563Z,40.70
2022-08-26T23:47:37.112Z,42.35
2022-08-26T23:50:04.143Z,42.21
2022-08-26T23:52:33.054Z,42.05
2022-08-26T23:54:59.653Z,41.66
2022-08-26T23:57:28.791Z,42.03
2022-08-26T23:59:55.309Z,42.47
